Time;durP1;ratioP1;P1;durP2;ratioP2;P2;SDS_P1;SDS_P2;PMS_P1;PMS_P2;Temp;Humidity;BMP_temperature;BMP_pressure;BME280_temperature;BME280_humidity;BME280_pressure;Samples;Min_cycle;Max_cycle;Signal;HPM_P1;HPM_P2
2023/07/05 00:01:39;;;;;;;8.68;5.95;;;14.80;99.90;;;;;;4975832;28;20693;-80
2023/07/05 00:04:05;;;;;;;9.75;6.75;;;14.70;99.90;;;;;;4966023;28;20041;-80
2023/07/05 00:06:31;;;;;;;11.15;6.68;;;14.70;99.90;;;;;;4971265;28;20540;-81
2023/07/05 00:08:57;;;;;;;11.13;7.75;;;14.70;99.90;;;;;;4964566;28;20264;-80
2023/07/05 00:11:23;;;;;;;9.95;7.22;;;14.70;99.90;;;;;;4971988;28;20627;-76
2023/07/05 00:13:49;;;;;;;10.95;8.35;;;14.60;99.90;;;;;;4976289;28;20073;-77
2023/07/05 00:16:16;;;;;;;11.70;7.43;;;14.60;99.90;;;;;;4974082;28;20084;-76
2023/07/05 00:18:41;;;;;;;10.23;7.85;;;14.60;99.90;;;;;;4983174;28;20080;-77
2023/07/05 00:21:09;;;;;;;12.65;8.15;;;14.60;99.90;;;;;;4984249;28;20065;-77
2023/07/05 00:23:39;;;;;;;13.35;7.72;;;14.60;99.90;;;;;;4972559;28;20136;-76
2023/07/05 00:26:09;;;;;;;;;;;14.60;99.90;;;;;;4987877;28;20492;-76
2023/07/05 00:28:35;;;;;;;13.20;8.15;;;14.60;99.90;;;;;;4990443;28;20522;-76
2023/07/05 00:31:02;;;;;;;12.63;8.93;;;14.60;99.90;;;;;;4993640;28;20572;-76
2023/07/05 00:33:28;;;;;;;11.98;8.15;;;14.60;99.90;;;;;;4986937;28;20054;-75
2023/07/05 00:35:55;;;;;;;12.93;9.05;;;14.60;99.90;;;;;;4968708;28;20111;-76
2023/07/05 00:38:22;;;;;;;12.27;9.02;;;14.60;99.90;;;;;;4992119;28;20045;-76
2023/07/05 00:40:48;;;;;;;12.55;9.02;;;14.60;99.90;;;;;;4982989;28;20128;-76
2023/07/05 00:43:15;;;;;;;11.63;9.18;;;14.60;99.90;;;;;;4987517;28;20046;-76
2023/07/05 00:45:59;;;;;;;15.52;9.18;;;14.60;99.90;;;;;;4972847;28;20049;-76
2023/07/05 00:48:35;;;;;;;13.43;8.73;;;14.60;99.90;;;;;;4986800;28;20064;-77
2023/07/05 00:51:18;;;;;;;13.65;8.70;;;14.60;99.90;;;;;;4983799;28;20045;-77
2023/07/05 00:53:44;;;;;;;10.60;8.68;;;14.60;99.90;;;;;;4985086;28;20520;-76
2023/07/05 00:56:27;;;;;;;13.77;9.98;;;14.60;99.90;;;;;;4988669;28;20037;-77
2023/07/05 00:58:55;;;;;;;12.85;8.90;;;14.70;99.90;;;;;;4975655;28;20062;-76
2023/07/05 01:01:21;;;;;;;12.30;8.10;;;14.70;99.90;;;;;;4980198;28;20096;-77
2023/07/05 01:03:52;;;;;;;10.57;8.30;;;14.70;99.90;;;;;;4986410;28;20104;-77
2023/07/05 01:06:22;;;;;;;11.63;8.30;;;14.70;99.90;;;;;;4968865;28;20062;-77
2023/07/05 01:08:49;;;;;;;13.38;8.65;;;14.70;99.90;;;;;;4978928;28;20586;-76
2023/07/05 01:11:40;;;;;;;12.45;8.40;;;14.70;99.90;;;;;;4986342;28;20048;-76
2023/07/05 01:14:54;;;;;;;14.13;9.20;;;14.70;99.90;;;;;;4981896;28;20113;-76
2023/07/05 01:18:07;;;;;;;13.00;9.13;;;14.70;99.90;;;;;;4962342;28;20050;-76
2023/07/05 01:20:40;;;;;;;11.82;9.15;;;14.80;99.90;;;;;;4941000;28;20153;-77
2023/07/05 01:23:29;;;;;;;13.27;9.77;;;14.80;99.90;;;;;;5007601;28;20392;-77
2023/07/05 01:26:13;;;;;;;12.20;9.37;;;14.70;99.90;;;;;;4985767;28;20054;-77
2023/07/05 01:28:42;;;;;;;14.43;9.35;;;14.80;99.90;;;;;;4988357;28;20488;-76
2023/07/05 01:31:39;;;;;;;11.50;9.55;;;14.70;99.90;;;;;;4966150;28;20412;-76
2023/07/05 01:34:24;;;;;;;15.63;10.27;;;14.80;99.90;;;;;;4988783;28;20516;-76
2023/07/05 01:36:50;;;;;;;13.63;10.40;;;14.70;99.90;;;;;;4992980;28;20034;-75
2023/07/05 01:39:17;;;;;;;14.52;10.75;;;14.60;99.90;;;;;;4983965;28;20043;-76
2023/07/05 01:41:43;;;;;;;14.80;10.95;;;14.60;99.90;;;;;;4989184;28;20061;-81
2023/07/05 01:44:15;;;;;;;15.68;11.77;;;14.60;99.90;;;;;;4971851;28;20853;-80
2023/07/05 01:46:49;;;;;;;16.48;12.07;;;14.60;99.90;;;;;;4985363;28;20078;-81
2023/07/05 01:49:31;;;;;;;14.80;12.25;;;14.60;99.90;;;;;;4986496;28;20153;-82
2023/07/05 01:52:42;;;;;;;15.82;12.68;;;14.60;99.90;;;;;;4988029;28;20045;-77
2023/07/05 01:55:23;;;;;;;;;;;14.50;99.90;;;;;;4987871;28;20053;-82
2023/07/05 01:58:00;;;;;;;15.80;13.18;;;14.50;99.90;;;;;;4972073;28;19929;-82
2023/07/05 02:00:28;;;;;;;19.52;12.82;;;14.40;99.90;;;;;;4986178;28;20555;-81
2023/07/05 02:03:01;;;;;;;16.42;12.93;;;14.40;99.90;;;;;;4972975;28;20053;-83
2023/07/05 02:05:29;;;;;;;14.32;12.02;;;14.40;99.90;;;;;;4981091;28;20133;-76
2023/07/05 02:07:57;;;;;;;14.98;12.40;;;14.40;99.90;;;;;;4987476;28;20045;-83
2023/07/05 02:10:23;;;;;;;14.82;12.70;;;14.40;99.90;;;;;;4989777;28;20107;-81
2023/07/05 02:12:52;;;;;;;16.60;12.63;;;14.50;99.90;;;;;;4982742;28;20041;-83
2023/07/05 02:15:19;;;;;;;17.00;13.38;;;14.50;99.90;;;;;;4987080;28;20116;-81
2023/07/05 02:17:45;;;;;;;19.55;13.80;;;14.50;99.90;;;;;;4995339;28;20076;-83
2023/07/05 02:20:11;;;;;;;19.77;14.18;;;14.50;99.90;;;;;;5004688;28;20038;-81
2023/07/05 02:22:37;;;;;;;19.30;14.55;;;14.50;99.90;;;;;;4988675;28;20517;-81
2023/07/05 02:25:03;;;;;;;18.33;14.80;;;14.50;99.90;;;;;;4985117;28;20048;-75
2023/07/05 02:27:29;;;;;;;19.27;15.73;;;14.50;99.90;;;;;;4971596;28;20053;-78
2023/07/05 02:29:56;;;;;;;16.55;14.80;;;14.50;99.90;;;;;;4972829;28;20049;-78
2023/07/05 02:32:23;;;;;;;19.10;15.20;;;14.50;99.90;;;;;;4971862;28;20046;-77
2023/07/05 02:34:49;;;;;;;17.70;15.82;;;14.50;99.90;;;;;;4972253;28;20121;-77
2023/07/05 02:37:15;;;;;;;22.65;16.65;;;14.50;99.90;;;;;;4966443;28;20556;-77
2023/07/05 02:39:41;;;;;;;19.38;15.73;;;14.50;99.90;;;;;;4986448;28;20056;-81
2023/07/05 02:42:08;;;;;;;19.35;16.10;;;14.50;99.90;;;;;;4985430;28;20038;-82
2023/07/05 02:44:33;;;;;;;19.70;16.52;;;14.50;99.90;;;;;;4972388;28;20100;-82
2023/07/05 02:47:00;;;;;;;19.45;16.15;;;14.50;99.90;;;;;;4988387;28;20042;-82
2023/07/05 02:49:26;;;;;;;20.52;16.50;;;14.50;99.90;;;;;;4976138;28;20563;-82
2023/07/05 02:51:53;;;;;;;19.92;17.80;;;14.60;99.90;;;;;;4990307;28;20176;-81
2023/07/05 02:54:19;;;;;;;21.60;17.52;;;14.60;99.90;;;;;;4987354;28;20813;-76
2023/07/05 02:56:45;;;;;;;21.77;18.23;;;14.60;99.90;;;;;;4987437;28;20492;-76
2023/07/05 02:59:11;;;;;;;20.65;18.65;;;14.60;99.90;;;;;;5003770;28;20511;-78
2023/07/05 03:01:37;;;;;;;22.38;19.85;;;14.60;99.90;;;;;;4973396;28;20046;-77
2023/07/05 03:04:02;;;;;;;21.20;18.90;;;14.60;99.90;;;;;;4976559;28;20120;-79
2023/07/05 03:06:28;;;;;;;21.45;19.23;;;14.60;99.90;;;;;;4984126;28;20058;-79
2023/07/05 03:08:54;;;;;;;22.42;18.48;;;14.60;99.90;;;;;;4979099;28;20050;-80
2023/07/05 03:11:20;;;;;;;22.15;19.80;;;14.60;99.90;;;;;;4975772;28;20038;-80
2023/07/05 03:13:46;;;;;;;24.13;19.55;;;14.60;99.90;;;;;;4980703;28;20057;-79
2023/07/05 03:16:12;;;;;;;21.58;19.23;;;14.60;99.90;;;;;;4980722;28;20038;-79
2023/07/05 03:18:37;;;;;;;21.65;19.08;;;14.60;99.90;;;;;;4982730;28;20143;-80
2023/07/05 03:21:03;;;;;;;20.17;18.08;;;14.60;99.90;;;;;;4983964;28;20050;-79
2023/07/05 03:23:29;;;;;;;25.88;21.08;;;14.60;99.90;;;;;;4979552;28;20054;-78
2023/07/05 03:25:57;;;;;;;20.95;18.88;;;14.70;99.90;;;;;;4967649;28;20049;-79
2023/07/05 03:28:25;;;;;;;22.85;20.55;;;14.70;99.90;;;;;;4982410;28;20046;-79
2023/07/05 03:31:02;;;;;;;19.92;17.83;;;14.70;99.90;;;;;;4982431;28;20078;-79
2023/07/05 03:33:29;;;;;;;21.40;19.13;;;14.70;99.90;;;;;;4983475;28;20085;-78
2023/07/05 03:36:17;;;;;;;21.50;19.13;;;14.70;99.90;;;;;;4969238;28;20523;-78
2023/07/05 03:38:43;;;;;;;25.30;21.95;;;14.70;99.90;;;;;;4981202;28;20093;-77
2023/07/05 03:41:11;;;;;;;21.67;19.45;;;14.70;99.90;;;;;;4967726;28;20624;-77
2023/07/05 03:43:38;;;;;;;22.00;19.88;;;14.80;99.90;;;;;;4980618;28;20056;-77
2023/07/05 03:46:06;;;;;;;25.88;22.15;;;14.80;99.90;;;;;;4968540;28;20039;-77
2023/07/05 03:48:37;;;;;;;23.27;20.92;;;14.80;99.90;;;;;;4980777;28;20478;-77
2023/07/05 03:51:04;;;;;;;23.33;20.85;;;14.80;99.90;;;;;;4967247;28;20049;-77
2023/07/05 03:53:30;;;;;;;23.60;21.33;;;14.80;99.90;;;;;;4966308;28;20046;-77
2023/07/05 03:56:01;;;;;;;22.38;20.02;;;14.90;99.90;;;;;;4980130;28;20520;-77
2023/07/05 03:58:26;;;;;;;28.13;23.73;;;14.90;99.90;;;;;;4971902;28;20424;-78
2023/07/05 04:00:52;;;;;;;24.38;21.80;;;15.00;99.90;;;;;;4982274;28;20640;-76
2023/07/05 04:03:18;;;;;;;22.98;19.20;;;15.00;99.90;;;;;;4970254;28;20457;-76
2023/07/05 04:05:44;;;;;;;20.40;18.48;;;15.10;99.90;;;;;;4982737;28;20112;-76
2023/07/05 04:08:10;;;;;;;21.75;19.75;;;15.10;99.90;;;;;;4981361;28;20038;-76
2023/07/05 04:10:35;;;;;;;20.03;18.17;;;15.10;99.90;;;;;;4983665;28;20042;-76
2023/07/05 04:13:01;;;;;;;20.35;18.33;;;15.20;99.90;;;;;;4984997;28;20033;-75
2023/07/05 04:15:27;;;;;;;22.13;19.67;;;15.20;99.90;;;;;;4977662;28;20504;-76
2023/07/05 04:17:52;;;;;;;19.45;16.75;;;15.20;99.90;;;;;;4989160;28;20109;-76
2023/07/05 04:20:18;;;;;;;16.42;14.93;;;15.30;99.90;;;;;;4983652;28;20042;-75
2023/07/05 04:22:44;;;;;;;15.00;13.40;;;15.40;99.90;;;;;;4974802;28;20121;-75
2023/07/05 04:25:10;;;;;;;14.63;13.13;;;15.40;99.90;;;;;;4971765;28;20076;-76
2023/07/05 04:27:39;;;;;;;15.00;12.82;;;15.40;99.90;;;;;;4990876;28;20045;-76
2023/07/05 04:30:05;;;;;;;15.05;11.63;;;15.40;99.90;;;;;;4994706;28;20052;-75
2023/07/05 04:32:31;;;;;;;13.00;11.05;;;15.40;99.90;;;;;;4989932;28;20500;-76
2023/07/05 04:34:57;;;;;;;13.32;10.15;;;15.40;99.90;;;;;;4972152;28;20072;-75
2023/07/05 04:37:24;;;;;;;10.25;9.18;;;15.40;99.90;;;;;;4972526;28;20048;-77
2023/07/05 04:39:49;;;;;;;11.38;8.63;;;15.40;99.90;;;;;;4992199;28;20041;-75
2023/07/05 04:42:15;;;;;;;9.18;7.95;;;15.40;99.90;;;;;;4990036;28;20073;-76
2023/07/05 04:44:41;;;;;;;9.25;7.30;;;15.40;99.90;;;;;;4982940;28;20061;-76
2023/07/05 04:47:09;;;;;;;9.10;6.95;;;15.30;99.90;;;;;;4995054;28;20049;-76
2023/07/05 04:49:35;;;;;;;7.95;5.38;;;15.30;99.90;;;;;;4990660;28;20042;-76
2023/07/05 04:52:05;;;;;;;8.48;5.38;;;15.20;99.90;;;;;;4996435;28;20077;-76
2023/07/05 04:54:34;;;;;;;10.43;6.75;;;15.10;99.90;;;;;;4991864;28;20130;-76
2023/07/05 04:57:00;;;;;;;7.38;5.93;;;15.10;99.90;;;;;;4985051;28;20116;-76
2023/07/05 04:59:29;;;;;;;9.60;6.68;;;15.00;99.90;;;;;;4988801;28;20501;-76
2023/07/05 05:01:55;;;;;;;7.32;6.28;;;15.00;99.90;;;;;;4985835;28;20052;-76
2023/07/05 05:04:21;;;;;;;9.60;6.78;;;14.90;99.90;;;;;;4989015;28;20046;-75
2023/07/05 05:06:47;;;;;;;9.32;6.78;;;14.90;99.90;;;;;;4964658;28;20417;-77
2023/07/05 05:09:13;;;;;;;8.27;6.72;;;14.80;99.90;;;;;;4972850;28;20049;-76
2023/07/05 05:11:39;;;;;;;7.53;6.18;;;14.70;99.90;;;;;;4964099;28;20046;-76
2023/07/05 05:14:04;;;;;;;7.50;6.65;;;14.60;99.90;;;;;;4976572;28;20040;-75
2023/07/05 05:16:32;;;;;;;7.72;6.50;;;14.50;99.90;;;;;;4964031;28;20050;-77
2023/07/05 05:18:57;;;;;;;9.20;7.10;;;14.50;99.90;;;;;;4967828;28;20393;-76
2023/07/05 05:21:23;;;;;;;8.80;7.15;;;14.40;99.90;;;;;;4970691;28;20047;-77
2023/07/05 05:23:49;;;;;;;10.43;7.15;;;14.40;99.90;;;;;;4971034;28;20501;-77
2023/07/05 05:26:15;;;;;;;10.10;7.00;;;14.40;99.90;;;;;;4945682;28;20047;-75
2023/07/05 05:28:40;;;;;;;8.10;6.40;;;14.40;99.90;;;;;;4959536;28;20409;-76
2023/07/05 05:31:09;;;;;;;6.97;6.28;;;14.40;99.90;;;;;;4963654;28;20051;-76
2023/07/05 05:33:36;;;;;;;7.70;6.47;;;14.40;99.90;;;;;;4942407;28;20510;-77
2023/07/05 05:36:03;;;;;;;7.55;6.47;;;14.40;99.90;;;;;;4959236;28;20592;-76
2023/07/05 05:38:29;;;;;;;7.88;6.95;;;14.40;99.90;;;;;;4965983;28;20533;-78
2023/07/05 05:41:10;;;;;;;7.05;6.28;;;14.40;99.90;;;;;;4990985;28;20038;-78
2023/07/05 05:43:37;;;;;;;9.18;6.47;;;14.40;99.90;;;;;;4968747;28;20489;-78
2023/07/05 05:46:03;;;;;;;6.97;5.78;;;14.40;99.90;;;;;;4960506;28;20046;-76
2023/07/05 05:48:29;;;;;;;8.07;6.07;;;14.40;99.90;;;;;;4967617;28;20065;-76
2023/07/05 05:50:55;;;;;;;11.65;6.45;;;14.40;99.90;;;;;;4952300;28;20039;-77
2023/07/05 05:53:21;;;;;;;8.45;5.88;;;14.50;99.90;;;;;;4963686;28;20493;-76
2023/07/05 05:55:47;;;;;;;7.97;5.63;;;14.50;99.90;;;;;;4964140;28;20050;-76
2023/07/05 05:58:12;;;;;;;8.13;5.88;;;14.50;99.90;;;;;;4969810;28;20045;-71
2023/07/05 06:00:38;;;;;;;7.00;5.65;;;14.50;99.90;;;;;;4958088;28;20221;-71
2023/07/05 06:03:04;;;;;;;7.05;5.75;;;14.50;99.90;;;;;;4972288;28;20058;-72
2023/07/05 06:05:32;;;;;;;8.85;5.55;;;14.50;99.90;;;;;;4964577;28;20077;-72
2023/07/05 06:07:59;;;;;;;6.32;5.00;;;14.50;99.90;;;;;;4982496;28;20046;-72
2023/07/05 06:10:25;;;;;;;6.68;4.80;;;14.50;99.90;;;;;;4984958;28;20057;-72
2023/07/05 06:12:51;;;;;;;8.20;5.22;;;14.60;99.90;;;;;;4966675;28;20053;-72
2023/07/05 06:15:17;;;;;;;7.93;4.88;;;14.60;99.90;;;;;;4980844;28;20089;-71
2023/07/05 06:17:43;;;;;;;7.97;5.20;;;14.50;99.90;;;;;;4967265;28;20137;-72
2023/07/05 06:20:10;;;;;;;7.97;5.25;;;14.50;99.90;;;;;;4982854;28;20085;-71
2023/07/05 06:22:37;;;;;;;9.60;4.90;;;14.60;99.90;;;;;;4977031;28;20124;-72
2023/07/05 06:25:03;;;;;;;6.63;4.78;;;14.70;99.90;;;;;;4979079;28;20090;-71
2023/07/05 06:27:29;;;;;;;8.70;4.93;;;14.70;99.90;;;;;;4983411;28;20047;-72
2023/07/05 06:29:55;;;;;;;6.63;4.80;;;14.80;99.90;;;;;;4983061;28;20494;-71
2023/07/05 06:32:21;;;;;;;8.05;5.00;;;14.90;99.90;;;;;;4976864;28;20041;-71
2023/07/05 06:34:47;;;;;;;8.75;5.70;;;14.90;99.90;;;;;;4980632;28;20050;-74
2023/07/05 06:37:13;;;;;;;7.18;5.07;;;15.00;99.90;;;;;;4981988;28;20052;-75
2023/07/05 06:39:41;;;;;;;7.70;4.93;;;15.00;99.90;;;;;;4979349;28;20136;-75
2023/07/05 06:42:07;;;;;;;9.27;5.25;;;15.00;99.90;;;;;;4968709;28;20050;-75
2023/07/05 06:44:32;;;;;;;7.88;5.13;;;15.00;99.90;;;;;;4985274;28;20046;-75
2023/07/05 06:46:58;;;;;;;8.93;4.85;;;15.10;99.90;;;;;;4985847;28;20061;-76
2023/07/05 06:49:24;;;;;;;8.35;5.07;;;15.10;99.90;;;;;;4980908;28;20612;-76
2023/07/05 06:51:50;;;;;;;8.35;4.60;;;15.10;99.90;;;;;;4983551;28;20468;-75
2023/07/05 06:54:20;;;;;;;7.25;4.70;;;15.10;99.90;;;;;;4981252;28;20049;-73
2023/07/05 06:56:46;;;;;;;7.70;5.03;;;15.10;99.90;;;;;;4982754;28;20050;-73
2023/07/05 06:59:12;;;;;;;7.15;4.40;;;15.10;99.90;;;;;;4980765;28;20490;-73
2023/07/05 07:01:40;;;;;;;7.10;5.35;;;15.10;99.90;;;;;;4965855;28;20038;-73
2023/07/05 07:04:06;;;;;;;6.97;4.70;;;15.00;99.90;;;;;;4980593;28;20046;-74
2023/07/05 07:06:34;;;;;;;6.60;3.97;;;15.00;99.90;;;;;;4971592;28;20047;-74
2023/07/05 07:09:03;;;;;;;6.10;4.07;;;15.00;99.90;;;;;;4960165;28;20051;-72
2023/07/05 07:11:29;;;;;;;8.13;4.40;;;15.00;99.90;;;;;;4961893;28;20036;-73
2023/07/05 07:13:55;;;;;;;5.75;4.10;;;15.00;99.90;;;;;;4947753;28;20051;-73
2023/07/05 07:16:21;;;;;;;7.28;4.10;;;15.00;99.90;;;;;;4962595;28;20127;-73
2023/07/05 07:18:50;;;;;;;6.38;3.92;;;15.00;99.90;;;;;;4946162;28;20499;-73
2023/07/05 07:21:18;;;;;;;7.13;3.85;;;15.10;99.90;;;;;;4947999;28;20042;-72
2023/07/05 07:23:48;;;;;;;6.30;4.00;;;15.10;99.90;;;;;;4944868;28;20054;-72
2023/07/05 07:26:20;;;;;;;7.10;4.18;;;15.20;99.90;;;;;;4946791;28;20038;-72
2023/07/05 07:28:52;;;;;;;6.68;4.10;;;15.10;99.90;;;;;;4945954;28;20046;-74
2023/07/05 07:31:26;;;;;;;5.50;4.28;;;15.00;99.90;;;;;;4960095;28;20149;-74
2023/07/05 07:33:52;;;;;;;7.40;4.40;;;14.90;99.90;;;;;;4949625;28;20047;-73
2023/07/05 07:36:24;;;;;;;7.43;4.38;;;14.70;99.90;;;;;;4963018;28;20049;-74
2023/07/05 07:38:50;;;;;;;6.20;4.57;;;14.60;99.90;;;;;;4952036;28;20120;-74
2023/07/05 07:41:21;;;;;;;6.10;4.07;;;14.50;99.90;;;;;;4948721;28;20042;-74
2023/07/05 07:43:50;;;;;;;4.85;2.92;;;14.40;99.90;;;;;;4966402;28;20051;-74
2023/07/05 07:46:18;;;;;;;4.30;2.35;;;14.20;99.90;;;;;;4963145;28;20482;-75
2023/07/05 07:48:46;;;;;;;4.75;2.03;;;14.00;99.90;;;;;;4952125;28;20725;-74
2023/07/05 07:51:13;;;;;;;4.60;2.08;;;13.80;99.90;;;;;;4964512;28;20074;-73
2023/07/05 07:53:39;;;;;;;3.50;1.65;;;13.60;99.90;;;;;;4965818;28;20046;-77
2023/07/05 07:56:16;;;;;;;3.95;2.00;;;13.40;99.90;;;;;;4949929;28;20100;-74
2023/07/05 07:58:48;;;;;;;3.72;1.80;;;13.20;99.90;;;;;;4966265;28;20047;-74
2023/07/05 08:01:22;;;;;;;3.92;1.77;;;13.10;99.90;;;;;;4964534;28;20042;-74
2023/07/05 08:03:49;;;;;;;3.78;1.35;;;13.00;99.90;;;;;;4965518;28;20382;-75
2023/07/05 08:06:15;;;;;;;3.17;1.60;;;12.90;99.90;;;;;;4963701;28;20051;-76
2023/07/05 08:08:42;;;;;;;4.32;1.50;;;12.80;99.90;;;;;;4962122;28;20055;-76
2023/07/05 08:11:08;;;;;;;3.55;1.20;;;12.70;99.90;;;;;;4950014;28;20071;-76
2023/07/05 08:13:36;;;;;;;3.53;1.60;;;12.70;99.90;;;;;;4952269;28;20042;-76
2023/07/05 08:16:02;;;;;;;2.78;1.23;;;12.60;99.90;;;;;;4949251;28;20051;-76
2023/07/05 08:18:28;;;;;;;1.95;1.23;;;12.60;99.90;;;;;;4949684;28;20103;-77
2023/07/05 08:20:54;;;;;;;2.92;1.20;;;12.50;99.90;;;;;;4950910;28;20039;-76
2023/07/05 08:23:20;;;;;;;2.65;1.35;;;12.40;99.90;;;;;;4964399;28;20117;-77
2023/07/05 08:25:54;;;;;;;3.70;0.98;;;12.50;99.90;;;;;;4961700;28;20051;-77
2023/07/05 08:28:25;;;;;;;2.30;0.90;;;12.40;99.90;;;;;;4964653;28;20065;-77
2023/07/05 08:30:55;;;;;;;2.15;0.93;;;12.40;99.90;;;;;;4962715;28;20054;-73
2023/07/05 08:33:23;;;;;;;2.88;1.13;;;12.30;99.90;;;;;;4950922;28;20464;-73
2023/07/05 08:36:22;;;;;;;2.50;1.08;;;12.40;99.90;;;;;;4944038;28;20524;-72
2023/07/05 08:38:50;;;;;;;4.88;1.30;;;12.30;99.90;;;;;;4932828;28;20110;-77
2023/07/05 08:41:41;;;;;;;3.13;1.25;;;12.40;99.90;;;;;;4949595;28;20069;-73
2023/07/05 08:44:24;;;;;;;5.10;1.45;;;12.40;99.90;;;;;;4943595;28;20039;-73
2023/07/05 08:47:39;;;;;;;3.40;1.52;;;12.30;99.90;;;;;;4953364;28;20109;-76
2023/07/05 08:50:26;;;;;;;5.03;1.48;;;12.30;99.90;;;;;;4944720;28;20058;-73
2023/07/05 08:52:57;;;;;;;4.88;1.60;;;12.30;99.90;;;;;;4949315;28;20382;-73
2023/07/05 08:55:48;;;;;;;5.25;1.60;;;12.30;99.90;;;;;;4962726;28;20061;-73
2023/07/05 08:58:24;;;;;;;5.28;1.50;;;12.30;99.90;;;;;;4965491;28;20038;-72
2023/07/05 09:01:00;;;;;;;4.60;1.70;;;12.30;99.90;;;;;;4965544;28;20150;-73
2023/07/05 09:03:31;;;;;;;4.35;1.60;;;12.40;99.90;;;;;;4959669;28;20059;-74
2023/07/05 09:06:13;;;;;;;;;;;12.40;99.90;;;;;;4970034;28;20178;-74
2023/07/05 09:08:56;;;;;;;4.65;1.70;;;12.40;99.90;;;;;;4987317;28;20304;-74
2023/07/05 09:11:46;;;;;;;5.85;2.17;;;12.40;99.90;;;;;;4987459;28;20132;-75
2023/07/05 09:14:16;;;;;;;6.07;2.03;;;12.40;99.90;;;;;;4992346;28;20107;-75
2023/07/05 09:16:56;;;;;;;8.38;2.40;;;12.40;99.90;;;;;;4983260;28;20136;-74
2023/07/05 09:19:45;;;;;;;7.18;2.40;;;12.50;99.90;;;;;;4984577;28;20179;-74
2023/07/05 09:22:17;;;;;;;9.15;2.65;;;12.50;99.90;;;;;;4978012;28;20057;-72
2023/07/05 09:24:44;;;;;;;6.18;2.53;;;12.50;99.90;;;;;;4973023;28;20048;-73
2023/07/05 09:27:22;;;;;;;8.45;2.67;;;12.50;99.90;;;;;;4983636;28;20492;-73
2023/07/05 09:30:16;;;;;;;7.68;2.65;;;12.60;99.90;;;;;;4989821;28;20345;-72
2023/07/05 09:32:46;;;;;;;7.75;2.72;;;12.70;99.90;;;;;;4978091;28;20291;-72
2023/07/05 09:35:23;;;;;;;9.20;3.15;;;12.70;99.90;;;;;;4982428;28;20375;-73
2023/07/05 09:38:01;;;;;;;11.75;3.28;;;12.80;99.90;;;;;;4987695;28;20510;-73
2023/07/05 09:40:35;;;;;;;11.13;3.55;;;12.90;99.90;;;;;;4989302;28;20147;-72
2023/07/05 09:43:31;;;;;;;11.85;3.80;;;12.90;99.90;;;;;;4974549;28;20413;-73
2023/07/05 09:46:01;;;;;;;13.30;3.45;;;13.00;99.90;;;;;;4967301;28;20449;-74
2023/07/05 09:48:29;;;;;;;8.95;2.95;;;13.10;99.90;;;;;;4970154;28;20060;-73
2023/07/05 09:50:54;;;;;;;8.70;2.90;;;13.20;99.90;;;;;;4988383;28;20053;-73
2023/07/05 09:53:41;;;;;;;9.50;3.00;;;13.20;99.90;;;;;;4987521;28;20061;-73
2023/07/05 09:56:11;;;;;;;8.88;2.90;;;13.40;99.90;;;;;;4983046;28;20033;-73
2023/07/05 09:58:44;;;;;;;8.82;2.70;;;13.50;99.90;;;;;;4968875;28;20474;-73
2023/07/05 10:01:21;;;;;;;12.77;3.85;;;13.60;99.90;;;;;;4990328;28;20045;-74
2023/07/05 10:04:02;;;;;;;10.00;3.72;;;13.90;99.90;;;;;;4981140;28;20428;-73
2023/07/05 10:06:28;;;;;;;10.00;2.75;;;14.10;99.90;;;;;;4985034;28;20416;-73
2023/07/05 10:08:59;;;;;;;8.07;2.78;;;14.30;99.90;;;;;;4972712;28;20076;-72
2023/07/05 10:11:26;;;;;;;;;;;14.50;99.90;;;;;;5003923;28;20046;-73
2023/07/05 10:14:20;;;;;;;9.88;3.67;;;14.60;99.90;;;;;;4988287;28;19954;-73
2023/07/05 10:16:49;;;;;;;12.45;3.58;;;14.60;99.90;;;;;;4967434;28;20049;-74
2023/07/05 10:20:00;;;;;;;13.10;2.88;;;14.50;99.90;;;;;;4995374;28;20033;-73
2023/07/05 10:22:30;;;;;;;11.48;3.72;;;14.50;99.90;;;;;;4969125;28;20053;-73
2023/07/05 10:25:13;;;;;;;14.77;4.20;;;14.40;99.90;;;;;;4976270;28;20784;-72
2023/07/05 10:27:43;;;;;;;11.10;3.70;;;14.50;99.90;;;;;;4973446;28;20118;-72
2023/07/05 10:30:27;;;;;;;14.70;3.97;;;14.80;99.90;;;;;;4965707;28;20497;-73
2023/07/05 10:33:23;;;;;;;12.10;3.55;;;15.00;99.90;;;;;;4985574;28;20038;-72
2023/07/05 10:36:02;;;;;;;11.63;3.05;;;15.40;99.90;;;;;;4989519;28;20055;-72
2023/07/05 10:38:29;;;;;;;9.02;3.13;;;15.60;99.90;;;;;;4965473;28;20046;-72
2023/07/05 10:41:09;;;;;;;9.48;2.50;;;15.70;99.90;;;;;;4968754;28;20062;-72
2023/07/05 10:43:36;;;;;;;9.38;2.70;;;15.60;99.90;;;;;;4968005;28;20076;-75
2023/07/05 10:46:02;;;;;;;9.50;3.10;;;15.50;99.90;;;;;;4972231;28;20072;-75
2023/07/05 10:48:40;;;;;;;12.00;3.22;;;15.40;99.90;;;;;;4967349;28;20056;-74
2023/07/05 10:51:19;;;;;;;11.40;3.08;;;15.40;99.90;;;;;;4985596;28;20053;-75
2023/07/05 10:53:55;;;;;;;7.30;2.75;;;15.40;99.90;;;;;;4982317;28;20056;-75
2023/07/05 10:56:31;;;;;;;8.63;2.58;;;15.30;99.90;;;;;;4982856;28;20123;-74
2023/07/05 10:59:12;;;;;;;9.60;2.55;;;15.20;99.90;;;;;;4968106;28;20778;-74
2023/07/05 11:01:44;;;;;;;11.57;3.55;;;15.10;99.90;;;;;;4968954;28;20046;-73
2023/07/05 11:04:18;;;;;;;10.65;3.30;;;15.00;99.90;;;;;;4983151;28;20061;-74
2023/07/05 11:06:46;;;;;;;7.40;2.65;;;15.00;99.90;;;;;;4996781;28;20056;-75
2023/07/05 11:09:12;;;;;;;8.18;2.13;;;15.00;99.90;;;;;;4972743;28;20080;-75
2023/07/05 11:11:46;;;;;;;7.47;2.10;;;15.20;99.90;;;;;;4987661;28;20099;-74
2023/07/05 11:14:14;;;;;;;8.70;2.20;;;15.30;99.90;;;;;;4985780;28;20085;-74
2023/07/05 11:16:43;;;;;;;9.40;1.90;;;15.40;99.90;;;;;;4987665;28;20049;-74
2023/07/05 11:19:15;;;;;;;5.75;1.75;;;15.30;99.90;;;;;;4987156;28;20049;-75
2023/07/05 11:21:49;;;;;;;7.97;2.05;;;15.30;99.90;;;;;;4981554;28;20054;-74
2023/07/05 11:24:30;;;;;;;4.68;1.83;;;15.10;99.90;;;;;;5003065;28;20496;-75
2023/07/05 11:26:57;;;;;;;5.78;2.10;;;15.00;99.90;;;;;;4968434;28;20445;-75
2023/07/05 11:29:32;;;;;;;7.38;2.03;;;14.70;99.90;;;;;;5000013;28;20048;-74
2023/07/05 11:32:02;;;;;;;5.68;1.95;;;14.50;99.90;;;;;;4986472;28;20111;-74
2023/07/05 11:34:29;;;;;;;5.72;2.20;;;14.30;99.90;;;;;;4988538;28;20121;-74
2023/07/05 11:37:01;;;;;;;11.98;2.75;;;14.10;99.90;;;;;;4987634;28;20054;-73
2023/07/05 11:39:39;;;;;;;5.40;2.10;;;14.00;99.90;;;;;;4985454;28;20064;-74
2023/07/05 11:42:16;;;;;;;6.50;1.90;;;13.80;99.90;;;;;;4980570;28;20136;-73
2023/07/05 11:44:48;;;;;;;7.82;2.58;;;13.70;99.90;;;;;;4983429;28;20525;-74
2023/07/05 11:47:22;;;;;;;7.47;1.90;;;13.60;99.90;;;;;;4990202;28;20042;-74
2023/07/05 11:50:08;;;;;;;8.00;2.17;;;13.50;99.90;;;;;;4987656;28;20045;-74
2023/07/05 11:52:41;;;;;;;4.25;2.00;;;13.40;99.90;;;;;;5005097;28;20413;-72
2023/07/05 11:55:25;;;;;;;6.85;2.58;;;13.30;99.90;;;;;;4985474;28;20108;-73
2023/07/05 11:58:27;;;;;;;7.70;2.42;;;13.30;99.90;;;;;;4989067;28;20052;-72
2023/07/05 12:01:03;;;;;;;5.65;2.40;;;13.20;99.90;;;;;;4987295;28;20156;-73
2023/07/05 12:03:41;;;;;;;5.93;2.33;;;13.20;99.90;;;;;;4981616;28;20157;-72
2023/07/05 12:06:10;;;;;;;6.88;2.70;;;13.10;99.90;;;;;;4984057;28;20057;-73
2023/07/05 12:08:43;;;;;;;6.38;2.75;;;13.10;99.90;;;;;;4990909;28;20045;-73
2023/07/05 12:11:11;;;;;;;7.03;2.85;;;13.10;99.90;;;;;;4975032;28;20054;-73
2023/07/05 12:13:37;;;;;;;11.38;3.70;;;13.10;99.90;;;;;;4988827;28;20050;-75
2023/07/05 12:16:12;;;;;;;8.60;2.92;;;13.20;99.90;;;;;;4981600;28;20422;-75
2023/07/05 12:18:38;;;;;;;9.77;3.33;;;13.20;99.90;;;;;;4985892;28;20062;-76
2023/07/05 12:21:05;;;;;;;8.13;2.92;;;13.20;99.90;;;;;;4990133;28;20059;-76
2023/07/05 12:23:34;;;;;;;8.23;2.67;;;13.20;99.90;;;;;;4993550;28;20060;-76
2023/07/05 12:26:04;;;;;;;9.63;3.53;;;13.30;99.90;;;;;;4971095;28;20073;-76
2023/07/05 12:28:32;;;;;;;8.93;3.03;;;13.30;99.90;;;;;;4971871;28;20050;-77
2023/07/05 12:31:01;;;;;;;9.10;3.00;;;13.30;99.90;;;;;;4991818;28;20045;-76
2023/07/05 12:33:34;;;;;;;10.05;3.30;;;13.30;99.90;;;;;;4986830;28;20042;-76
2023/07/05 12:36:09;;;;;;;9.90;4.05;;;13.40;99.90;;;;;;4990209;28;20065;-76
2023/07/05 12:38:36;;;;;;;8.68;3.72;;;13.50;99.90;;;;;;4984650;28;20081;-76
2023/07/05 12:41:03;;;;;;;10.55;3.50;;;13.50;99.90;;;;;;4990492;28;20489;-76
2023/07/05 12:43:29;;;;;;;9.85;3.33;;;13.50;99.90;;;;;;4979900;28;20040;-77
2023/07/05 12:46:11;;;;;;;12.77;3.75;;;13.50;99.90;;;;;;4970886;28;20045;-77
2023/07/05 12:48:37;;;;;;;11.27;3.53;;;13.60;99.90;;;;;;4989238;28;20042;-73
2023/07/05 12:51:11;;;;;;;11.25;4.20;;;13.60;99.90;;;;;;4989788;28;20057;-73
2023/07/05 12:53:37;;;;;;;10.73;3.50;;;13.70;99.90;;;;;;4969084;28;20042;-73
2023/07/05 12:56:10;;;;;;;8.35;3.17;;;13.80;99.90;;;;;;4984344;28;20397;-73
2023/07/05 12:58:40;;;;;;;11.48;3.50;;;13.90;99.90;;;;;;4978466;28;20133;-73
2023/07/05 13:01:11;;;;;;;11.90;3.22;;;13.90;99.90;;;;;;4975436;28;20108;-73